PWSweather.com
Personal Weather Stations
Station Observations
WD02334
France, RosnySousBoisFR 93110

FranceRosnySousBoisFR 93110

Lat: 48.875661, Lon: 2.485932

Elevation: 88

Station Type: WMR100/OREGON SCIENTIFIC

http://boulletpascal.fr/index

Latest ConditionsUpdated 2:30:15 PM GMT+01:01 Wednesday, May 4, 2016
Currently Today's Max Today's Min Today's Average
Temperature 69.0°F20.6°C 70.7°F21.5°C 44.8°F7.1°C 56.6°F13.7°C
Dew Point 32.7°F0.4°C 37.5°F3.1°C 26.2°F-3.2°C 32.1°F0.1°C
Winds 2.3 mph WNW3.7 kmh WNW 5.8 mph E9.3 kmh E - 1.5 mph 2.4 kmh
Wind Gusts 2.3 mph3.7 kmh 10.4 mph16.7 kmh - -
Humidity 26% 58% 25% 41%
Pressure 30.30 in1026.1 mb 30.39 in1029.1 mb 30.30 in1026.1 mb -
Hour Temp Dew Point Humidity Winds Wind Gusts Pressure Precip Precip Rate Daily Precip Total
02:30 PM 69.0°F20.6°C 32.7°F0.4°C 26% 2.3 mph WNW3.7 kmh WNW 2.3 mph3.7 kmh 30.30 in1026.1 mb - 0.00 in0.0 mm 0.00 in0.0 mm
02:20 PM 69.0°F20.6°C 32.7°F0.4°C 26% 1.2 mph NNE1.9 kmh NNE 1.2 mph1.9 kmh 30.32 in1026.8 mb - 0.00 in0.0 mm 0.00 in0.0 mm
01:30 PM 69.7°F20.9°C 32.3°F0.2°C 25% 1.2 mph WNW1.9 kmh WNW 3.5 mph5.6 kmh 30.33 in1027.1 mb - 0.00 in0.0 mm 0.00 in0.0 mm
01:20 PM 69.1°F20.6°C 32.7°F0.4°C 26% 2.3 mph WSW3.7 kmh WSW 5.8 mph9.3 kmh 30.33 in1027.1 mb - 0.00 in0.0 mm 0.00 in0.0 mm
01:10 PM 70.4°F21.3°C 33.8°F1.0°C 26% 3.5 mph WNW5.6 kmh WNW 8.1 mph13.0 kmh 30.33 in1027.1 mb - 0.00 in0.0 mm 0.00 in0.0 mm
01:00 PM 69.6°F20.9°C 33.2°F0.7°C 26% 2.3 mph WNW3.7 kmh WNW 3.5 mph5.6 kmh 30.33 in1027.1 mb - 0.00 in0.0 mm 0.00 in0.0 mm
12:50 PM 70.7°F21.5°C 33.1°F0.6°C 25% 3.5 mph W5.6 kmh W 5.8 mph9.3 kmh 30.33 in1027.1 mb - 0.00 in0.0 mm 0.00 in0.0 mm
11:20 AM 68.7°F20.4°C 34.3°F1.3°C 28% 3.5 mph WNW5.6 kmh WNW 4.6 mph7.4 kmh 30.36 in1028.1 mb - 0.00 in0.0 mm 0.00 in0.0 mm
11:10 AM 69.3°F20.7°C 34.8°F1.6°C 28% 3.5 mph NNW5.6 kmh NNW 8.1 mph13.0 kmh 30.36 in1028.1 mb - 0.00 in0.0 mm 0.00 in0.0 mm
11:00 AM 68.6°F20.3°C 34.2°F1.2°C 28% 2.3 mph WNW3.7 kmh WNW 5.8 mph9.3 kmh 30.36 in1028.1 mb - 0.00 in0.0 mm 0.00 in0.0 mm
10:50 AM 67.4°F19.7°C 34.0°F1.1°C 29% 3.5 mph W5.6 kmh W 5.8 mph9.3 kmh 30.36 in1028.1 mb - 0.00 in0.0 mm 0.00 in0.0 mm
10:40 AM 67.3°F19.6°C 34.0°F1.1°C 29% 5.8 mph E9.3 kmh E 8.1 mph13.0 kmh 30.36 in1028.1 mb - 0.00 in0.0 mm 0.00 in0.0 mm
10:30 AM 68.1°F20.1°C 35.5°F1.9°C 30% 3.5 mph SE5.6 kmh SE 10.4 mph16.7 kmh 30.36 in1028.1 mb - 0.00 in0.0 mm 0.00 in0.0 mm
10:20 AM 68.2°F20.1°C 35.6°F2.0°C 30% 3.5 mph NNE5.6 kmh NNE 10.4 mph16.7 kmh 30.36 in1028.1 mb - 0.00 in0.0 mm 0.00 in0.0 mm
10:00 AM 67.7°F19.8°C 36.8°F2.7°C 32% 3.5 mph E5.6 kmh E 5.8 mph9.3 kmh 30.36 in1028.1 mb - 0.00 in0.0 mm 0.00 in0.0 mm
09:50 AM 67.2°F19.6°C 36.3°F2.4°C 32% 4.6 mph E7.4 kmh E 5.8 mph9.3 kmh 30.36 in1028.1 mb - 0.00 in0.0 mm 0.00 in0.0 mm
09:40 AM 67.6°F19.8°C 37.5°F3.1°C 33% 5.8 mph E9.3 kmh E 6.9 mph11.1 kmh 30.36 in1028.1 mb - 0.00 in0.0 mm 0.00 in0.0 mm
09:30 AM 67.1°F19.5°C 37.0°F2.8°C 33% 3.5 mph NW5.6 kmh NW 3.5 mph5.6 kmh 30.36 in1028.1 mb - 0.00 in0.0 mm 0.00 in0.0 mm
09:20 AM 66.3°F19.1°C 36.3°F2.4°C 33% 1.2 mph NE1.9 kmh NE 3.5 mph5.6 kmh 30.36 in1028.1 mb - 0.00 in0.0 mm 0.00 in0.0 mm
09:10 AM 65.0°F18.3°C 36.0°F2.2°C 34% 2.3 mph E3.7 kmh E 4.6 mph7.4 kmh 30.36 in1028.1 mb - 0.00 in0.0 mm 0.00 in0.0 mm
09:00 AM 65.9°F18.8°C 35.9°F2.2°C 33% 4.6 mph E7.4 kmh E 5.8 mph9.3 kmh 30.36 in1028.1 mb - 0.00 in0.0 mm 0.00 in0.0 mm
08:50 AM 66.3°F19.1°C 37.1°F2.8°C 34% 2.3 mph WNW3.7 kmh WNW 4.6 mph7.4 kmh 30.36 in1028.1 mb - 0.00 in0.0 mm 0.00 in0.0 mm
08:40 AM 65.8°F18.8°C 36.7°F2.6°C 34% 1.2 mph NW1.9 kmh NW 2.3 mph3.7 kmh 30.36 in1028.1 mb - 0.00 in0.0 mm 0.00 in0.0 mm
08:30 AM 63.5°F17.5°C 35.3°F1.8°C 35% 1.2 mph ENE1.9 kmh ENE 2.3 mph3.7 kmh 30.36 in1028.1 mb - 0.00 in0.0 mm 0.00 in0.0 mm
08:20 AM 63.8°F17.7°C 35.6°F2.0°C 35% 1.2 mph WNW1.9 kmh WNW 2.3 mph3.7 kmh 30.36 in1028.1 mb - 0.00 in0.0 mm 0.00 in0.0 mm
08:10 AM 63.4°F17.4°C 36.0°F2.2°C 36% 2.3 mph WNW3.7 kmh WNW 2.3 mph3.7 kmh 30.36 in1028.1 mb - 0.00 in0.0 mm 0.00 in0.0 mm
08:00 AM 64.0°F17.8°C 35.8°F2.1°C 35% 1.2 mph ENE1.9 kmh ENE 1.2 mph1.9 kmh 30.36 in1028.1 mb - 0.00 in0.0 mm 0.00 in0.0 mm
07:50 AM 63.9°F17.7°C 36.4°F2.4°C 36% Calm Calm -- 30.36 in1028.1 mb - 0.00 in0.0 mm 0.00 in0.0 mm
07:40 AM 62.3°F16.8°C 36.4°F2.4°C 38% 1.2 mph ENE1.9 kmh ENE 2.3 mph3.7 kmh 30.36 in1028.1 mb - 0.00 in0.0 mm 0.00 in0.0 mm
07:30 AM 61.1°F16.2°C 35.3°F1.8°C 38% 1.2 mph WNW1.9 kmh WNW 1.2 mph1.9 kmh 30.36 in1028.1 mb - 0.00 in0.0 mm 0.00 in0.0 mm
07:20 AM 58.8°F14.9°C 35.8°F2.1°C 42% Calm Calm 1.2 mph1.9 kmh 30.36 in1028.1 mb - 0.00 in0.0 mm 0.00 in0.0 mm
07:10 AM 57.7°F14.3°C 35.9°F2.2°C 44% Calm Calm 1.2 mph1.9 kmh 30.36 in1028.1 mb - 0.00 in0.0 mm 0.00 in0.0 mm
07:00 AM 55.7°F13.2°C 35.2°F1.8°C 46% Calm Calm 1.2 mph1.9 kmh 30.36 in1028.1 mb - 0.00 in0.0 mm 0.00 in0.0 mm
06:50 AM 54.3°F12.4°C 35.0°F1.7°C 48% Calm Calm -- 30.36 in1028.1 mb - 0.00 in0.0 mm 0.00 in0.0 mm
06:40 AM 52.6°F11.4°C 33.9°F1.1°C 49% Calm Calm -- 30.36 in1028.1 mb - 0.00 in0.0 mm 0.00 in0.0 mm
06:20 AM 48.3°F9.1°C 31.0°F-0.6°C 51% Calm Calm -- 30.36 in1028.1 mb - 0.00 in0.0 mm 0.00 in0.0 mm
06:10 AM 47.4°F8.6°C 30.7°F-0.7°C 52% Calm Calm -- 30.36 in1028.1 mb - 0.00 in0.0 mm 0.00 in0.0 mm
06:00 AM 46.0°F7.8°C 29.8°F-1.2°C 53% Calm Calm -- 30.36 in1028.1 mb - 0.00 in0.0 mm 0.00 in0.0 mm
05:50 AM 45.1°F7.3°C 29.0°F-1.7°C 53% Calm Calm -- 30.36 in1028.1 mb - 0.00 in0.0 mm 0.00 in0.0 mm
05:40 AM 44.8°F7.1°C 28.7°F-1.8°C 53% Calm Calm -- 30.36 in1028.1 mb - 0.00 in0.0 mm 0.00 in0.0 mm
05:30 AM 44.8°F7.1°C 29.6°F-1.3°C 55% Calm Calm -- 30.36 in1028.1 mb - 0.00 in0.0 mm 0.00 in0.0 mm
05:20 AM 44.8°F7.1°C 30.9°F-0.6°C 58% Calm Calm 1.2 mph1.9 kmh 30.36 in1028.1 mb - 0.00 in0.0 mm 0.00 in0.0 mm
05:00 AM 45.1°F7.3°C 31.2°F-0.4°C 58% 1.2 mph ENE1.9 kmh ENE 1.2 mph1.9 kmh 30.36 in1028.1 mb - 0.00 in0.0 mm 0.00 in0.0 mm
04:10 AM 45.9°F7.7°C 29.7°F-1.3°C 53% 1.2 mph ENE1.9 kmh ENE 1.2 mph1.9 kmh 30.36 in1028.1 mb - 0.00 in0.0 mm 0.00 in0.0 mm
04:00 AM 46.0°F7.8°C 29.4°F-1.4°C 52% Calm Calm 1.2 mph1.9 kmh 30.36 in1028.1 mb - 0.00 in0.0 mm 0.00 in0.0 mm
03:50 AM 46.2°F7.9°C 29.5°F-1.4°C 52% 1.2 mph ENE1.9 kmh ENE 1.2 mph1.9 kmh 30.36 in1028.1 mb - 0.00 in0.0 mm 0.00 in0.0 mm
03:40 AM 46.4°F8.0°C 28.8°F-1.8°C 50% Calm Calm -- 30.36 in1028.1 mb - 0.00 in0.0 mm 0.00 in0.0 mm
03:30 AM 46.6°F8.1°C 28.4°F-2.0°C 49% Calm Calm 1.2 mph1.9 kmh 30.36 in1028.1 mb - 0.00 in0.0 mm 0.00 in0.0 mm
03:20 AM 46.7°F8.2°C 29.5°F-1.4°C 51% Calm Calm 1.2 mph1.9 kmh 30.36 in1028.1 mb - 0.00 in0.0 mm 0.00 in0.0 mm
03:10 AM 46.8°F8.2°C 29.6°F-1.3°C 51% 1.2 mph ENE1.9 kmh ENE 1.2 mph1.9 kmh 30.36 in1028.1 mb - 0.00 in0.0 mm 0.00 in0.0 mm
03:00 AM 46.9°F8.3°C 29.7°F-1.3°C 51% Calm Calm 1.2 mph1.9 kmh 30.39 in1029.1 mb - 0.00 in0.0 mm 0.00 in0.0 mm
02:50 AM 47.1°F8.4°C 29.9°F-1.2°C 51% 2.3 mph ENE3.7 kmh ENE 2.3 mph3.7 kmh 30.39 in1029.1 mb - 0.00 in0.0 mm 0.00 in0.0 mm
02:40 AM 47.3°F8.5°C 30.1°F-1.1°C 51% 2.3 mph E3.7 kmh E 2.3 mph3.7 kmh 30.39 in1029.1 mb - 0.00 in0.0 mm 0.00 in0.0 mm
02:30 AM 47.5°F8.6°C 29.7°F-1.3°C 50% 1.2 mph ENE1.9 kmh ENE 1.2 mph1.9 kmh 30.39 in1029.1 mb - 0.00 in0.0 mm 0.00 in0.0 mm
02:20 AM 47.8°F8.8°C 29.6°F-1.3°C 49% 2.3 mph E3.7 kmh E 2.3 mph3.7 kmh 30.39 in1029.1 mb - 0.00 in0.0 mm 0.00 in0.0 mm
02:10 AM 48.0°F8.9°C 28.7°F-1.8°C 47% 1.2 mph ENE1.9 kmh ENE 2.3 mph3.7 kmh 30.39 in1029.1 mb - 0.00 in0.0 mm 0.00 in0.0 mm
02:00 AM 48.2°F9.0°C 28.9°F-1.7°C 47% 1.2 mph ENE1.9 kmh ENE 1.2 mph1.9 kmh 30.39 in1029.1 mb - 0.00 in0.0 mm 0.00 in0.0 mm
01:50 AM 48.4°F9.1°C 29.1°F-1.6°C 47% 1.2 mph ENE1.9 kmh ENE 1.2 mph1.9 kmh 30.39 in1029.1 mb - 0.00 in0.0 mm 0.00 in0.0 mm
01:40 AM 48.7°F9.3°C 28.3°F-2.1°C 45% Calm Calm 1.2 mph1.9 kmh 30.39 in1029.1 mb - 0.00 in0.0 mm 0.00 in0.0 mm
01:30 AM 48.9°F9.4°C 27.9°F-2.3°C 44% 1.2 mph ENE1.9 kmh ENE 1.2 mph1.9 kmh 30.39 in1029.1 mb - 0.00 in0.0 mm 0.00 in0.0 mm
01:20 AM 49.0°F9.4°C 28.0°F-2.2°C 44% 1.2 mph ENE1.9 kmh ENE 1.2 mph1.9 kmh 30.39 in1029.1 mb - 0.00 in0.0 mm 0.00 in0.0 mm
01:10 AM 49.3°F9.6°C 28.3°F-2.1°C 44% 1.2 mph ENE1.9 kmh ENE 1.2 mph1.9 kmh 30.39 in1029.1 mb - 0.00 in0.0 mm 0.00 in0.0 mm
01:00 AM 49.5°F9.7°C 27.9°F-2.3°C 43% 1.2 mph ENE1.9 kmh ENE 1.2 mph1.9 kmh 30.39 in1029.1 mb - 0.00 in0.0 mm 0.00 in0.0 mm
12:50 AM 49.6°F9.8°C 27.5°F-2.5°C 42% Calm Calm 1.2 mph1.9 kmh 30.39 in1029.1 mb - 0.00 in0.0 mm 0.00 in0.0 mm
12:40 AM 49.8°F9.9°C 27.6°F-2.4°C 42% Calm Calm 1.2 mph1.9 kmh 30.39 in1029.1 mb - 0.00 in0.0 mm 0.00 in0.0 mm
12:30 AM 50.1°F10.1°C 26.6°F-3.0°C 40% 1.2 mph NE1.9 kmh NE 1.2 mph1.9 kmh 30.39 in1029.1 mb - 0.00 in0.0 mm 0.00 in0.0 mm
12:20 AM 50.3°F10.2°C 26.2°F-3.2°C 39% 1.2 mph NNW1.9 kmh NNW 2.3 mph3.7 kmh 30.39 in1029.1 mb - 0.00 in0.0 mm 0.00 in0.0 mm
12:10 AM 50.5°F10.3°C 26.5°F-3.1°C 39% Calm Calm -- 30.39 in1029.1 mb - 0.00 in0.0 mm 0.00 in0.0 mm
12:00 AM 50.9°F10.5°C 26.8°F-2.9°C 39% Calm Calm 1.2 mph1.9 kmh 30.36 in1028.1 mb - 0.00 in0.0 mm 0.00 in0.0 mm